Time;durP1;ratioP1;P1;durP2;ratioP2;P2;SDS_P1;SDS_P2;PMS_P1;PMS_P2;Temp;Humidity;BMP_temperature;BMP_pressure;BME280_temperature;BME280_humidity;BME280_pressure;Samples;Min_cycle;Max_cycle;Signal;HPM_P1;HPM_P2
2023/03/30 00:00:42;;;;;;;34.97;26.77;;;10.60;99.90;;;;;;5062027;28;20052;-75
2023/03/30 00:03:08;;;;;;;40.55;24.48;;;10.70;99.90;;;;;;5065553;28;20075;-75
2023/03/30 00:05:35;;;;;;;39.55;25.95;;;10.70;99.90;;;;;;5059379;28;20052;-75
2023/03/30 00:08:01;;;;;;;37.55;23.95;;;10.80;99.90;;;;;;5063172;28;20037;-75
2023/03/30 00:10:28;;;;;;;33.55;24.65;;;10.80;99.90;;;;;;5058576;28;20056;-75
2023/03/30 00:12:55;;;;;;;37.95;24.40;;;10.80;99.90;;;;;;5059341;28;20527;-75
2023/03/30 00:15:22;;;;;;;30.55;25.85;;;10.80;99.90;;;;;;5058003;28;20049;-75
2023/03/30 00:17:50;;;;;;;33.38;22.50;;;10.90;99.90;;;;;;5061157;28;20117;-75
2023/03/30 00:20:16;;;;;;;36.63;23.88;;;10.90;99.90;;;;;;5067152;28;20057;-75
2023/03/30 00:22:43;;;;;;;25.67;21.13;;;10.90;99.90;;;;;;5062597;28;20493;-75
2023/03/30 00:25:12;;;;;;;25.25;21.75;;;10.90;99.90;;;;;;5048122;28;20043;-75
2023/03/30 00:27:39;;;;;;;29.88;22.40;;;11.00;99.90;;;;;;5057805;28;20571;-75
2023/03/30 00:30:11;;;;;;;25.88;20.67;;;11.00;99.90;;;;;;5062673;28;20056;-75
2023/03/30 00:32:36;;;;;;;28.83;20.38;;;11.00;99.90;;;;;;5049428;28;20045;-75
2023/03/30 00:35:04;;;;;;;25.55;20.83;;;11.00;99.90;;;;;;5063717;28;20056;-75
2023/03/30 00:37:30;;;;;;;24.48;20.88;;;11.00;99.90;;;;;;5061838;28;20044;-74
2023/03/30 00:39:55;;;;;;;23.65;19.83;;;11.00;99.90;;;;;;5062014;28;20387;-75
2023/03/30 00:42:21;;;;;;;22.80;18.60;;;11.00;99.90;;;;;;5057373;28;20072;-75
2023/03/30 00:45:08;;;;;;;30.33;18.75;;;11.10;99.90;;;;;;5055344;28;20118;-75
2023/03/30 00:47:45;;;;;;;25.25;17.73;;;11.10;99.90;;;;;;5065243;28;20051;-75
2023/03/30 00:50:12;;;;;;;22.38;17.23;;;11.10;99.90;;;;;;5067578;28;20052;-75
2023/03/30 00:52:39;;;;;;;23.17;16.40;;;11.00;99.90;;;;;;5066676;28;20055;-75
2023/03/30 00:55:08;;;;;;;23.88;17.73;;;11.10;99.90;;;;;;5068375;28;20509;-75
2023/03/30 00:57:38;;;;;;;29.23;15.90;;;11.10;99.90;;;;;;5060376;28;20045;-74
2023/03/30 01:00:07;;;;;;;22.15;15.35;;;11.10;99.90;;;;;;5064337;28;20037;-74
2023/03/30 01:02:40;;;;;;;27.05;15.85;;;11.00;99.90;;;;;;5059454;28;20072;-75
2023/03/30 01:05:07;;;;;;;19.15;14.57;;;11.00;99.90;;;;;;5060328;28;20394;-75
2023/03/30 01:07:33;;;;;;;25.00;15.45;;;11.00;99.90;;;;;;5061689;28;20040;-75
2023/03/30 01:10:00;;;;;;;21.65;14.77;;;11.00;99.90;;;;;;5061426;28;20532;-75
2023/03/30 01:12:27;;;;;;;22.73;15.63;;;10.90;99.90;;;;;;5066848;28;20620;-75
2023/03/30 01:14:52;;;;;;;17.17;13.68;;;11.00;99.90;;;;;;5065907;28;20076;-75
2023/03/30 01:18:02;;;;;;;16.83;12.93;;;11.00;99.90;;;;;;5067227;28;20186;-75
2023/03/30 01:21:02;;;;;;;12.45;10.52;;;10.90;99.90;;;;;;5069280;28;20460;-75
2023/03/30 01:23:45;;;;;;;17.05;13.20;;;10.90;99.90;;;;;;5062948;28;20084;-75
2023/03/30 01:26:23;;;;;;;19.73;12.98;;;11.00;99.90;;;;;;5048948;28;20076;-75
2023/03/30 01:29:00;;;;;;;25.60;13.23;;;11.00;99.90;;;;;;5071138;28;20079;-75
2023/03/30 01:32:07;;;;;;;18.00;11.68;;;11.00;99.90;;;;;;5066219;28;20055;-75
2023/03/30 01:35:12;;;;;;;14.90;11.40;;;11.00;99.90;;;;;;5063752;28;20505;-75
2023/03/30 01:37:51;;;;;;;14.38;11.43;;;11.00;99.90;;;;;;5062201;28;20807;-75
2023/03/30 01:40:32;;;;;;;15.75;11.50;;;11.00;99.90;;;;;;5062235;28;20036;-75
2023/03/30 01:43:36;;;;;;;16.77;11.85;;;11.00;99.90;;;;;;5068747;28;20040;-74
2023/03/30 01:46:18;;;;;;;21.20;11.57;;;11.00;99.90;;;;;;5040894;28;20159;-75
2023/03/30 01:48:59;;;;;;;13.10;10.45;;;11.00;99.90;;;;;;5058442;28;20776;-74
2023/03/30 01:51:38;;;;;;;17.63;11.57;;;11.00;99.90;;;;;;5063995;28;20626;-75
2023/03/30 01:54:16;;;;;;;18.45;12.20;;;11.00;99.90;;;;;;5066045;28;20334;-75
2023/03/30 01:57:13;;;;;;;10.70;9.40;;;11.10;99.90;;;;;;5069464;28;20054;-75
2023/03/30 01:59:53;;;;;;;13.63;11.07;;;11.10;99.90;;;;;;5065789;28;20995;-76
2023/03/30 02:02:21;;;;;;;13.25;11.57;;;11.10;99.90;;;;;;5061437;28;20744;-75
2023/03/30 02:04:48;;;;;;;18.50;11.88;;;11.10;99.90;;;;;;5059751;28;20049;-76
2023/03/30 02:07:18;;;;;;;13.52;10.55;;;11.10;99.90;;;;;;5064435;28;20049;-75
2023/03/30 02:09:46;;;;;;;16.27;10.98;;;11.10;99.90;;;;;;5062689;28;20052;-75
2023/03/30 02:12:12;;;;;;;12.02;10.82;;;11.10;99.90;;;;;;5065695;28;20190;-75
2023/03/30 02:14:40;;;;;;;14.35;10.57;;;11.10;99.90;;;;;;5061668;28;20494;-75
2023/03/30 02:17:20;;;;;;;20.13;10.50;;;11.10;99.90;;;;;;5065709;28;20044;-75
2023/03/30 02:19:46;;;;;;;13.63;10.32;;;11.10;99.90;;;;;;5065756;28;20062;-75
2023/03/30 02:22:15;;;;;;;16.52;11.18;;;11.10;99.90;;;;;;5069155;28;20115;-75
2023/03/30 02:24:43;;;;;;;13.07;10.85;;;11.20;99.90;;;;;;5063885;28;20048;-74
2023/03/30 02:27:09;;;;;;;15.88;10.10;;;11.10;99.90;;;;;;5067451;28;20048;-75
2023/03/30 02:29:40;;;;;;;9.93;8.93;;;11.10;99.90;;;;;;5059806;28;20053;-75
2023/03/30 02:32:17;;;;;;;14.55;9.93;;;11.20;99.90;;;;;;5063283;28;20032;-75
2023/03/30 02:34:52;;;;;;;18.48;12.30;;;11.10;99.90;;;;;;5067533;28;20041;-75
2023/03/30 02:37:56;;;;;;;13.75;10.32;;;11.10;99.90;;;;;;5068279;28;20040;-74
2023/03/30 02:40:47;;;;;;;14.52;11.48;;;11.10;99.90;;;;;;5056860;28;20045;-75
2023/03/30 02:43:28;;;;;;;12.35;8.77;;;11.10;99.90;;;;;;5057441;28;20072;-75
2023/03/30 02:46:09;;;;;;;13.52;9.30;;;11.10;99.90;;;;;;5064474;28;20040;-75
2023/03/30 02:48:41;;;;;;;10.98;9.18;;;11.10;99.90;;;;;;5067056;28;20374;-74
2023/03/30 02:51:39;;;;;;;13.13;9.57;;;11.10;99.90;;;;;;5065507;28;20044;-75
2023/03/30 02:54:08;;;;;;;;;;;11.10;99.90;;;;;;5045761;28;20137;-74
2023/03/30 02:56:51;;;;;;;14.48;9.50;;;11.10;99.90;;;;;;5062467;28;19950;-75
2023/03/30 02:59:21;;;;;;;10.88;9.02;;;11.10;99.90;;;;;;5066665;28;20508;-74
2023/03/30 03:02:11;;;;;;;10.98;8.57;;;11.20;99.90;;;;;;5063428;28;20726;-74
2023/03/30 03:04:37;;;;;;;13.65;9.88;;;11.20;99.90;;;;;;5067586;28;20072;-74
2023/03/30 03:07:03;;;;;;;13.38;9.77;;;11.10;99.90;;;;;;5057385;28;20396;-74
2023/03/30 03:09:29;;;;;;;14.50;9.63;;;11.10;99.90;;;;;;5066939;28;20048;-74
2023/03/30 03:11:55;;;;;;;10.65;8.13;;;11.10;99.90;;;;;;5064148;28;20037;-75
2023/03/30 03:14:20;;;;;;;13.63;7.85;;;11.10;99.90;;;;;;5069240;28;20072;-75
2023/03/30 03:16:46;;;;;;;9.90;7.30;;;11.10;99.90;;;;;;5063481;28;20130;-75
2023/03/30 03:19:12;;;;;;;8.75;7.47;;;11.00;99.90;;;;;;5055624;28;20119;-75
2023/03/30 03:21:38;;;;;;;9.88;8.57;;;11.00;99.90;;;;;;5063720;28;20531;-75
2023/03/30 03:24:05;;;;;;;10.98;8.20;;;11.00;99.90;;;;;;5050418;28;20083;-75
2023/03/30 03:26:32;;;;;;;10.88;7.72;;;11.00;99.90;;;;;;5063396;28;20055;-74
2023/03/30 03:28:58;;;;;;;9.52;8.38;;;11.00;99.90;;;;;;5067037;28;20055;-74
2023/03/30 03:31:26;;;;;;;12.50;7.82;;;10.90;99.90;;;;;;5050691;28;20048;-74
2023/03/30 03:33:51;;;;;;;11.48;7.90;;;11.00;99.90;;;;;;5068770;28;20059;-75
2023/03/30 03:36:21;;;;;;;10.73;7.78;;;11.00;99.90;;;;;;5063076;28;20037;-75
2023/03/30 03:38:47;;;;;;;12.90;8.02;;;10.90;99.90;;;;;;5060575;28;20062;-75
2023/03/30 03:41:12;;;;;;;10.48;8.20;;;11.00;99.90;;;;;;5059540;28;20044;-75
2023/03/30 03:43:38;;;;;;;10.43;7.45;;;10.90;99.90;;;;;;5066798;28;20485;-74
2023/03/30 03:46:04;;;;;;;9.85;7.05;;;10.90;99.90;;;;;;5064173;28;20041;-74
2023/03/30 03:48:30;;;;;;;14.85;7.85;;;10.90;99.90;;;;;;5066917;28;20044;-75
2023/03/30 03:50:57;;;;;;;12.55;8.55;;;10.90;99.90;;;;;;5065389;28;20037;-75
2023/03/30 03:53:24;;;;;;;13.73;8.15;;;10.90;99.90;;;;;;5066168;28;20494;-75
2023/03/30 03:55:50;;;;;;;10.32;7.05;;;10.90;99.90;;;;;;5054950;28;20055;-75
2023/03/30 03:58:16;;;;;;;11.55;7.50;;;10.80;99.90;;;;;;5067522;28;20062;-75
2023/03/30 04:00:42;;;;;;;11.43;7.80;;;10.90;99.90;;;;;;5066877;28;20072;-75
2023/03/30 04:03:08;;;;;;;15.32;8.18;;;10.90;99.90;;;;;;5058966;28;20044;-74
2023/03/30 04:05:34;;;;;;;9.15;7.35;;;11.00;99.90;;;;;;5055545;28;20124;-75
2023/03/30 04:08:00;;;;;;;15.88;7.75;;;11.00;99.90;;;;;;5062105;28;20053;-75
2023/03/30 04:10:26;;;;;;;10.15;8.05;;;11.00;99.90;;;;;;5056987;28;20047;-75
2023/03/30 04:12:56;;;;;;;12.10;8.07;;;11.00;99.90;;;;;;5058066;28;20307;-74
2023/03/30 04:15:24;;;;;;;13.30;7.13;;;11.10;99.90;;;;;;5066067;28;20044;-75
2023/03/30 04:17:56;;;;;;;13.35;7.35;;;11.10;99.90;;;;;;5045931;28;20090;-75
2023/03/30 04:20:23;;;;;;;11.75;7.25;;;11.10;99.90;;;;;;5066115;28;20517;-74
2023/03/30 04:22:49;;;;;;;10.77;5.45;;;11.20;99.90;;;;;;5065829;28;20129;-74
2023/03/30 04:25:14;;;;;;;14.38;6.05;;;11.30;99.90;;;;;;5067437;28;20076;-74
2023/03/30 04:27:43;;;;;;;7.15;5.13;;;11.40;99.90;;;;;;5067498;28;20123;-74
2023/03/30 04:30:11;;;;;;;9.27;5.88;;;11.60;99.90;;;;;;5061653;28;20641;-74
2023/03/30 04:32:40;;;;;;;12.82;6.03;;;11.60;99.90;;;;;;5048890;28;20064;-74
2023/03/30 04:35:07;;;;;;;12.70;6.55;;;11.60;99.90;;;;;;5048365;28;20036;-74
2023/03/30 04:37:33;;;;;;;12.60;5.90;;;11.70;99.90;;;;;;5058588;28;20041;-75
2023/03/30 04:39:59;;;;;;;16.25;5.78;;;11.70;99.90;;;;;;5062018;28;20110;-74
2023/03/30 04:42:32;;;;;;;8.30;5.20;;;11.70;99.90;;;;;;5056842;28;20051;-75
2023/03/30 04:44:59;;;;;;;10.35;6.38;;;11.80;99.90;;;;;;5063924;28;20064;-75
2023/03/30 04:47:29;;;;;;;14.95;6.63;;;11.80;99.90;;;;;;5055426;28;20067;-75
2023/03/30 04:49:55;;;;;;;9.93;6.63;;;11.80;99.90;;;;;;5068011;28;20059;-75
2023/03/30 04:52:21;;;;;;;10.18;6.43;;;11.80;99.90;;;;;;5059620;28;20049;-74
2023/03/30 04:54:48;;;;;;;9.55;6.65;;;11.90;99.90;;;;;;5063999;28;20055;-74
2023/03/30 04:57:15;;;;;;;7.80;6.15;;;11.80;99.90;;;;;;5067358;28;20113;-75
2023/03/30 04:59:43;;;;;;;13.30;8.52;;;11.80;99.90;;;;;;5064138;28;20049;-74
2023/03/30 05:02:10;;;;;;;9.25;7.15;;;11.70;99.90;;;;;;5069843;28;20053;-75
2023/03/30 05:04:36;;;;;;;10.80;6.57;;;11.70;99.90;;;;;;5067140;28;20056;-74
2023/03/30 05:07:03;;;;;;;14.93;8.15;;;11.60;99.90;;;;;;5062577;28;20328;-75
2023/03/30 05:09:29;;;;;;;15.52;7.30;;;11.60;99.90;;;;;;5055236;28;20051;-75
2023/03/30 05:11:55;;;;;;;11.70;7.82;;;11.60;99.90;;;;;;5067835;28;20048;-74
2023/03/30 05:14:21;;;;;;;13.52;7.43;;;11.60;99.90;;;;;;5062009;28;20080;-74
2023/03/30 05:16:47;;;;;;;11.20;7.43;;;11.60;99.90;;;;;;5070106;28;20111;-75
2023/03/30 05:19:12;;;;;;;10.88;7.82;;;11.60;99.90;;;;;;5070018;28;20064;-75
2023/03/30 05:21:38;;;;;;;15.35;8.95;;;11.50;99.90;;;;;;5068720;28;20044;-75
2023/03/30 05:24:04;;;;;;;9.95;7.88;;;11.50;99.90;;;;;;5056011;28;20044;-74
2023/03/30 05:26:30;;;;;;;14.52;8.63;;;11.50;99.90;;;;;;5064111;28;20123;-75
2023/03/30 05:28:56;;;;;;;11.88;8.25;;;11.40;99.90;;;;;;5065717;28;20618;-74
2023/03/30 05:31:21;;;;;;;10.77;7.88;;;11.40;99.90;;;;;;5069036;28;20070;-74
2023/03/30 05:33:47;;;;;;;16.92;8.57;;;11.40;99.90;;;;;;5068467;28;20082;-74
2023/03/30 05:36:13;;;;;;;15.15;9.27;;;11.40;99.90;;;;;;5066427;28;20494;-75
2023/03/30 05:38:39;;;;;;;13.48;8.18;;;11.30;99.90;;;;;;5064289;28;20052;-75
2023/03/30 05:41:05;;;;;;;12.13;7.95;;;11.30;99.90;;;;;;5061530;28;20110;-75
2023/03/30 05:43:32;;;;;;;13.02;8.20;;;11.30;99.90;;;;;;5065654;28;20076;-74
2023/03/30 05:45:59;;;;;;;17.00;9.70;;;11.30;99.90;;;;;;5067398;28;20048;-75
2023/03/30 05:48:25;;;;;;;18.75;8.10;;;11.30;99.90;;;;;;5069799;28;20120;-75
2023/03/30 05:50:51;;;;;;;14.60;8.05;;;11.30;99.90;;;;;;5070091;28;20189;-75
2023/03/30 05:53:16;;;;;;;12.77;7.78;;;11.30;99.90;;;;;;5068643;28;20048;-75
2023/03/30 05:55:44;;;;;;;7.68;6.88;;;11.30;99.90;;;;;;5064032;28;20190;-74
2023/03/30 05:58:10;;;;;;;17.35;7.30;;;11.30;99.90;;;;;;5055364;28;20068;-74
2023/03/30 06:00:36;;;;;;;9.65;7.35;;;11.30;99.90;;;;;;5063976;28;20418;-74
2023/03/30 06:03:03;;;;;;;12.85;7.28;;;11.30;99.90;;;;;;5068477;28;20531;-74
2023/03/30 06:05:32;;;;;;;20.20;7.78;;;11.30;99.90;;;;;;5069415;28;20494;-74
2023/03/30 06:07:59;;;;;;;13.27;7.32;;;11.40;99.90;;;;;;5058501;28;20123;-75
2023/03/30 06:10:25;;;;;;;15.40;7.85;;;11.30;99.90;;;;;;5065127;28;20173;-74
2023/03/30 06:12:51;;;;;;;9.95;6.45;;;11.40;99.90;;;;;;5068125;28;20510;-74
2023/03/30 06:15:17;;;;;;;11.52;7.20;;;11.50;99.90;;;;;;5067299;28;20072;-74
2023/03/30 06:17:42;;;;;;;9.20;6.32;;;11.50;99.90;;;;;;5063241;28;20040;-74
2023/03/30 06:20:11;;;;;;;11.77;7.53;;;11.50;99.90;;;;;;5059990;28;20465;-74
2023/03/30 06:22:38;;;;;;;13.85;7.35;;;11.60;99.90;;;;;;5068619;28;20050;-74
2023/03/30 06:25:04;;;;;;;10.93;6.47;;;11.60;99.90;;;;;;5064016;28;20048;-75
2023/03/30 06:27:31;;;;;;;9.50;6.47;;;11.60;99.90;;;;;;5068602;28;20048;-75
2023/03/30 06:29:57;;;;;;;15.27;6.57;;;11.60;99.90;;;;;;5064043;28;20052;-75
2023/03/30 06:32:24;;;;;;;17.10;6.40;;;11.60;99.90;;;;;;5058275;28;20044;-75
2023/03/30 06:34:49;;;;;;;11.25;7.50;;;11.70;99.90;;;;;;5064019;28;20123;-75
2023/03/30 06:37:15;;;;;;;9.75;6.40;;;11.70;99.90;;;;;;5064020;28;20127;-75
2023/03/30 06:39:41;;;;;;;12.23;7.38;;;11.70;99.90;;;;;;5050304;28;20061;-75
2023/03/30 06:42:06;;;;;;;10.52;7.82;;;11.60;99.90;;;;;;5058721;28;20402;-75
2023/03/30 06:44:33;;;;;;;9.70;6.55;;;11.70;99.90;;;;;;5059243;28;20085;-75
2023/03/30 06:47:00;;;;;;;9.63;7.00;;;11.60;99.90;;;;;;5052417;28;20049;-75
2023/03/30 06:49:26;;;;;;;14.52;8.15;;;11.70;99.90;;;;;;5050883;28;20573;-75
2023/03/30 06:51:52;;;;;;;12.85;7.10;;;11.70;99.90;;;;;;5052229;28;20032;-75
2023/03/30 06:54:19;;;;;;;11.77;7.10;;;11.80;99.90;;;;;;5061790;28;20147;-75
2023/03/30 06:56:48;;;;;;;10.10;7.50;;;11.90;99.90;;;;;;5057935;28;20922;-75
2023/03/30 06:59:15;;;;;;;16.80;8.10;;;11.90;99.90;;;;;;5066785;28;20052;-75
2023/03/30 07:01:41;;;;;;;11.70;6.88;;;11.90;99.90;;;;;;5052535;28;20787;-75
2023/03/30 07:04:07;;;;;;;11.98;7.30;;;11.90;99.90;;;;;;5056506;28;20060;-74
2023/03/30 07:06:33;;;;;;;15.90;7.40;;;11.90;99.90;;;;;;5066592;28;20446;-74
2023/03/30 07:08:59;;;;;;;13.73;7.65;;;11.90;99.90;;;;;;5059311;28;20049;-74
2023/03/30 07:11:25;;;;;;;8.70;6.65;;;11.90;99.90;;;;;;5062540;28;20406;-73
2023/03/30 07:13:54;;;;;;;20.98;6.60;;;12.00;99.90;;;;;;5066591;28;20049;-74
2023/03/30 07:16:19;;;;;;;;;;;12.20;99.90;;;;;;5056097;28;20163;-75
2023/03/30 07:18:45;;;;;;;9.60;5.93;;;12.50;99.90;;;;;;5063447;28;20031;-75
2023/03/30 07:21:11;;;;;;;12.93;7.32;;;12.70;99.90;;;;;;5059309;28;20045;-74
2023/03/30 07:23:37;;;;;;;9.30;5.10;;;12.90;99.90;;;;;;5065500;28;20037;-74
2023/03/30 07:26:03;;;;;;;12.48;5.55;;;13.10;99.90;;;;;;5067579;28;20060;-74
2023/03/30 07:28:29;;;;;;;13.13;5.18;;;13.20;99.90;;;;;;5042832;28;20383;-74
2023/03/30 07:31:06;;;;;;;15.90;5.82;;;13.30;99.90;;;;;;5067506;28;20085;-75
2023/03/30 07:33:32;;;;;;;12.85;6.05;;;13.20;99.90;;;;;;5067963;28;20045;-74
2023/03/30 07:35:58;;;;;;;17.00;6.13;;;13.20;99.90;;;;;;5058605;28;20045;-75
2023/03/30 07:38:24;;;;;;;21.30;6.85;;;13.10;99.90;;;;;;5055938;28;20562;-74
2023/03/30 07:40:50;;;;;;;12.68;5.28;;;13.10;99.90;;;;;;5061038;28;20127;-75
2023/03/30 07:43:16;;;;;;;13.90;6.18;;;13.00;99.90;;;;;;5063152;28;20692;-75
2023/03/30 07:45:41;;;;;;;11.25;5.85;;;13.00;99.90;;;;;;5058502;28;20052;-74
2023/03/30 07:48:07;;;;;;;11.95;6.82;;;12.90;99.90;;;;;;5073619;28;20051;-74
2023/03/30 07:50:33;;;;;;;15.55;6.80;;;12.90;99.90;;;;;;5063638;28;20040;-74
2023/03/30 07:52:59;;;;;;;26.27;7.95;;;12.90;99.90;;;;;;5046159;28;20052;-75
2023/03/30 07:55:27;;;;;;;10.80;5.70;;;12.90;99.90;;;;;;5057802;28;20071;-74
2023/03/30 07:57:54;;;;;;;16.13;6.15;;;12.90;99.90;;;;;;5067297;28;20056;-74
2023/03/30 08:00:21;;;;;;;17.20;7.18;;;12.90;99.90;;;;;;5063371;28;20045;-74
2023/03/30 08:02:46;;;;;;;18.15;7.50;;;12.90;99.90;;;;;;5060633;28;20426;-74
2023/03/30 08:05:14;;;;;;;17.35;6.78;;;12.90;99.90;;;;;;5054226;28;20029;-74
2023/03/30 08:07:40;;;;;;;15.32;6.15;;;12.80;99.90;;;;;;5061825;28;20064;-74
2023/03/30 08:10:07;;;;;;;21.55;7.32;;;12.80;99.90;;;;;;5060729;28;20048;-74
2023/03/30 08:12:33;;;;;;;25.52;6.38;;;12.70;99.90;;;;;;5060967;28;20506;-74
2023/03/30 08:15:00;;;;;;;17.98;7.18;;;12.70;99.90;;;;;;5060523;28;20301;-74
2023/03/30 08:17:25;;;;;;;15.93;6.15;;;12.70;99.90;;;;;;5057399;28;20041;-74
2023/03/30 08:19:51;;;;;;;19.48;6.95;;;12.70;99.90;;;;;;5052618;28;20692;-74
2023/03/30 08:22:17;;;;;;;15.68;6.30;;;12.70;99.90;;;;;;5059909;28;20052;-74
2023/03/30 08:24:43;;;;;;;24.90;6.32;;;12.70;99.90;;;;;;5065478;28;20055;-75
2023/03/30 08:27:08;;;;;;;21.95;6.90;;;12.70;99.90;;;;;;5062223;28;20056;-75
2023/03/30 08:29:34;;;;;;;21.13;8.25;;;12.70;99.90;;;;;;5065451;28;20044;-74
2023/03/30 08:32:00;;;;;;;30.33;8.57;;;12.70;99.90;;;;;;5069399;28;20461;-74
2023/03/30 08:34:26;;;;;;;17.90;7.25;;;12.70;99.90;;;;;;5060750;28;20041;-74
2023/03/30 08:36:52;;;;;;;23.25;8.45;;;12.70;99.90;;;;;;5062565;28;20060;-74
2023/03/30 08:39:17;;;;;;;17.15;8.30;;;12.70;99.90;;;;;;5063360;28;20044;-74
2023/03/30 08:42:12;;;;;;;36.78;10.00;;;12.60;99.90;;;;;;5070879;28;20067;-74
2023/03/30 08:44:52;;;;;;;23.98;8.63;;;12.60;99.90;;;;;;5068204;28;20052;-74
2023/03/30 08:47:30;;;;;;;28.25;9.57;;;12.50;99.90;;;;;;5065577;28;20502;-75
2023/03/30 08:50:03;;;;;;;;;;;12.50;99.90;;;;;;5062805;28;20654;-74
2023/03/30 08:52:29;;;;;;;21.95;9.07;;;12.50;99.90;;;;;;5059028;28;20051;-74
2023/03/30 08:54:56;;;;;;;22.73;7.68;;;12.50;99.90;;;;;;5060555;28;20052;-75
2023/03/30 08:57:53;;;;;;;16.42;8.20;;;12.40;99.90;;;;;;5060114;28;20070;-74
2023/03/30 09:00:45;;;;;;;30.13;9.43;;;12.50;99.90;;;;;;5068833;28;20124;-75
2023/03/30 09:03:21;;;;;;;22.50;7.05;;;12.50;99.90;;;;;;5065419;28;20686;-74
2023/03/30 09:05:56;;;;;;;29.05;8.32;;;12.50;99.90;;;;;;5068637;28;20090;-75
2023/03/30 09:08:27;;;;;;;23.50;7.43;;;12.40;99.90;;;;;;5064978;28;20093;-75
2023/03/30 09:10:58;;;;;;;26.80;7.53;;;12.40;99.90;;;;;;5069193;28;20040;-75
2023/03/30 09:13:37;;;;;;;28.08;8.63;;;12.40;99.90;;;;;;5058297;28;20049;-75
2023/03/30 09:16:14;;;;;;;28.60;8.70;;;12.50;99.90;;;;;;5059579;28;20114;-74
2023/03/30 09:18:42;;;;;;;28.13;8.15;;;12.50;99.90;;;;;;5060009;28;20110;-75
2023/03/30 09:21:11;;;;;;;19.85;8.23;;;12.40;99.90;;;;;;5060605;28;20096;-74
2023/03/30 09:23:38;;;;;;;19.13;7.03;;;12.40;99.90;;;;;;5064751;28;20067;-74
2023/03/30 09:26:13;;;;;;;27.08;7.07;;;12.30;99.90;;;;;;5060114;28;20080;-74
2023/03/30 09:29:18;;;;;;;21.73;8.77;;;12.30;99.90;;;;;;5069111;28;20045;-74
2023/03/30 09:31:50;;;;;;;28.45;7.90;;;12.40;99.90;;;;;;5066480;28;20060;-74
2023/03/30 09:34:45;;;;;;;19.02;8.43;;;12.60;99.90;;;;;;5065023;28;20793;-74
2023/03/30 09:37:17;;;;;;;30.95;8.75;;;12.80;99.90;;;;;;5064653;28;20049;-74
2023/03/30 09:39:45;;;;;;;17.40;7.13;;;13.10;99.90;;;;;;5060394;28;20051;-74
2023/03/30 09:42:31;;;;;;;26.57;7.23;;;13.30;99.90;;;;;;5065674;28;20107;-74
2023/03/30 09:45:16;;;;;;;22.55;6.43;;;13.50;99.90;;;;;;5064518;28;20283;-73
2023/03/30 09:47:42;;;;;;;26.15;7.20;;;13.50;99.90;;;;;;5068235;28;20414;-73
2023/03/30 09:50:14;;;;;;;29.60;7.15;;;13.50;99.90;;;;;;5066002;28;20048;-74
2023/03/30 09:52:45;;;;;;;19.27;7.22;;;13.60;99.90;;;;;;5068790;28;20063;-74
2023/03/30 09:55:20;;;;;;;16.15;5.68;;;13.50;99.90;;;;;;5068613;28;20126;-75
2023/03/30 09:57:46;;;;;;;11.73;6.20;;;13.60;99.90;;;;;;5063171;28;20041;-74
2023/03/30 10:00:30;;;;;;;16.05;6.15;;;13.60;99.90;;;;;;5069978;28;20119;-74
2023/03/30 10:02:58;;;;;;;17.05;5.68;;;13.70;99.90;;;;;;5069792;28;20052;-74
2023/03/30 10:05:24;;;;;;;;;;;13.80;99.90;;;;;;5068828;28;20056;-74
2023/03/30 10:07:58;;;;;;;15.60;5.47;;;13.90;99.90;;;;;;5067112;28;19927;-74
2023/03/30 10:10:37;;;;;;;12.80;3.95;;;13.90;99.90;;;;;;5066136;28;20052;-74
2023/03/30 10:13:12;;;;;;;12.60;4.22;;;13.80;99.90;;;;;;5064445;28;20120;-74
2023/03/30 10:15:40;;;;;;;10.45;4.40;;;13.80;99.90;;;;;;5067011;28;20048;-74
2023/03/30 10:18:42;;;;;;;6.68;2.85;;;13.80;99.90;;;;;;5068803;28;20567;-74
2023/03/30 10:21:14;;;;;;;11.80;4.70;;;13.80;99.90;;;;;;5058521;28;20041;-74
2023/03/30 10:23:43;;;;;;;20.98;4.45;;;13.70;99.90;;;;;;5066483;28;20208;-74
2023/03/30 10:26:17;;;;;;;12.95;4.43;;;13.60;99.90;;;;;;5050724;28;20055;-74
2023/03/30 10:29:01;;;;;;;14.27;4.28;;;13.60;99.90;;;;;;5069322;28;20070;-74
2023/03/30 10:31:27;;;;;;;17.27;4.25;;;13.60;99.90;;;;;;5066982;28;20076;-74
2023/03/30 10:33:59;;;;;;;17.88;4.35;;;13.60;99.90;;;;;;5066348;28;20578;-74
2023/03/30 10:36:32;;;;;;;19.25;4.55;;;13.60;99.90;;;;;;5060270;28;20044;-74
2023/03/30 10:39:06;;;;;;;22.33;4.50;;;13.60;99.90;;;;;;5069440;28;20052;-74
2023/03/30 10:41:34;;;;;;;15.02;4.60;;;13.60;99.90;;;;;;5066417;28;20044;-74
2023/03/30 10:44:22;;;;;;;20.15;4.15;;;13.60;99.90;;;;;;5059873;28;20501;-74
2023/03/30 10:46:51;;;;;;;14.95;4.55;;;13.50;99.90;;;;;;5068794;28;20059;-74
2023/03/30 10:49:38;;;;;;;12.98;3.58;;;13.50;99.90;;;;;;5067896;28;20040;-74
2023/03/30 10:52:11;;;;;;;13.50;5.13;;;13.50;99.90;;;;;;5061670;28;20584;-74
2023/03/30 10:54:52;;;;;;;12.30;4.35;;;13.50;99.90;;;;;;5059727;28;20045;-74
2023/03/30 10:57:20;;;;;;;20.92;4.88;;;13.50;99.90;;;;;;5067482;28;20053;-74
2023/03/30 11:00:08;;;;;;;21.17;5.75;;;13.50;99.90;;;;;;5061310;28;20054;-74
2023/03/30 11:02:55;;;;;;;18.02;4.82;;;13.60;99.90;;;;;;5068023;28;20068;-75
2023/03/30 11:05:31;;;;;;;20.60;5.75;;;13.60;99.90;;;;;;5058185;28;20049;-74
2023/03/30 11:08:25;;;;;;;16.23;5.15;;;13.70;99.90;;;;;;5062946;28;20605;-74
2023/03/30 11:10:57;;;;;;;17.92;4.78;;;13.70;99.90;;;;;;5055255;28;20048;-74
2023/03/30 11:13:30;;;;;;;18.15;5.43;;;13.70;99.90;;;;;;5066383;28;20045;-73
2023/03/30 11:16:01;;;;;;;15.80;3.75;;;13.70;99.90;;;;;;5053928;28;20110;-74
2023/03/30 11:18:45;;;;;;;13.40;4.72;;;13.70;99.90;;;;;;5065931;28;20087;-74
2023/03/30 11:21:19;;;;;;;10.70;4.03;;;13.70;99.90;;;;;;5059981;28;20037;-74
2023/03/30 11:23:55;;;;;;;12.13;4.60;;;13.70;99.90;;;;;;5067723;28;20117;-74
2023/03/30 11:26:34;;;;;;;26.58;5.10;;;13.70;99.90;;;;;;5060546;28;20051;-74
2023/03/30 11:29:12;;;;;;;13.23;5.15;;;13.70;99.90;;;;;;5055360;28;20422;-74
2023/03/30 11:31:45;;;;;;;;;;;13.70;99.90;;;;;;5062853;28;20051;-75
2023/03/30 11:34:34;;;;;;;22.10;4.97;;;13.70;99.90;;;;;;5060663;28;19929;-74
2023/03/30 11:37:31;;;;;;;24.10;5.93;;;13.80;99.90;;;;;;5064369;28;20040;-75
2023/03/30 11:40:19;;;;;;;19.98;5.50;;;13.80;99.90;;;;;;5060575;28;20059;-74
2023/03/30 11:42:46;;;;;;;27.92;5.65;;;13.80;99.90;;;;;;5066614;28;20049;-74
2023/03/30 11:45:30;;;;;;;24.10;4.93;;;13.90;99.90;;;;;;5066013;28;20040;-75
2023/03/30 11:48:43;;;;;;;19.45;4.50;;;14.00;99.90;;;;;;5053822;28;20283;-75
2023/03/30 11:51:35;;;;;;;16.00;4.07;;;14.10;99.90;;;;;;5024358;28;20048;-74
2023/03/30 11:54:35;;;;;;;16.80;5.13;;;14.10;99.90;;;;;;5038668;28;20047;-75
2023/03/30 11:57:18;;;;;;;18.58;6.43;;;14.30;99.90;;;;;;5054028;28;20505;-75
2023/03/30 12:00:18;;;;;;;18.20;4.85;;;14.30;99.90;;;;;;5052393;28;20068;-75
2023/03/30 12:02:50;;;;;;;21.15;5.05;;;14.60;99.90;;;;;;5061791;28;20566;-75
2023/03/30 12:05:38;;;;;;;17.15;5.05;;;14.80;99.90;;;;;;5064916;28;20063;-76
2023/03/30 12:08:10;;;;;;;23.85;5.95;;;15.00;99.90;;;;;;5066720;28;20060;-75
2023/03/30 12:10:46;;;;;;;29.92;6.63;;;15.10;99.90;;;;;;5065938;28;20048;-75
2023/03/30 12:13:18;;;;;;;23.27;5.68;;;15.30;99.90;;;;;;5056015;28;20052;-75
2023/03/30 12:15:54;;;;;;;13.68;4.85;;;15.40;99.90;;;;;;5063301;28;20056;-75
2023/03/30 12:18:56;;;;;;;20.25;5.07;;;15.60;99.90;;;;;;5066257;28;20052;-75
2023/03/30 12:21:37;;;;;;;14.98;5.00;;;15.90;99.90;;;;;;5058397;28;20444;-74
2023/03/30 12:24:58;;;;;;;25.13;5.63;;;16.10;99.90;;;;;;5062163;28;20041;-74
2023/03/30 12:27:26;;;;;;;14.55;5.70;;;16.20;99.90;;;;;;5044191;28;20052;-75
2023/03/30 12:29:53;;;;;;;18.98;5.20;;;16.20;99.90;;;;;;5074664;28;20098;-75
2023/03/30 12:32:29;;;;;;;21.15;5.20;;;16.20;99.90;;;;;;5057344;28;20052;-75
2023/03/30 12:34:56;;;;;;;17.90;4.70;;;16.20;99.90;;;;;;5060230;28;20159;-75
2023/03/30 12:37:34;;;;;;;14.48;5.00;;;16.10;99.90;;;;;;5065354;28;20041;-75
2023/03/30 12:40:19;;;;;;;22.95;6.22;;;16.10;99.90;;;;;;5063224;28;20152;-75
2023/03/30 12:43:21;;;;;;;18.98;4.93;;;16.10;99.90;;;;;;5062943;28;20048;-75
2023/03/30 12:46:25;;;;;;;22.45;6.50;;;16.20;99.90;;;;;;5062389;28;20051;-76
2023/03/30 12:48:56;;;;;;;22.95;5.65;;;16.10;99.90;;;;;;5065409;28;20072;-76
2023/03/30 12:51:34;;;;;;;19.15;6.32;;;15.90;99.90;;;;;;5056134;28;20472;-75
2023/03/30 12:54:00;;;;;;;26.30;5.70;;;15.70;99.90;;;;;;5038004;28;20257;-76
2023/03/30 12:57:14;;;;;;;22.20;5.57;;;15.40;99.90;;;;;;5062667;28;20048;-75
2023/03/30 13:00:05;;;;;;;25.67;5.55;;;15.30;99.90;;;;;;5058921;28;20155;-75
2023/03/30 13:02:33;;;;;;;21.80;6.75;;;15.40;99.90;;;;;;5057012;28;20156;-75
2023/03/30 13:04:59;;;;;;;20.63;5.43;;;15.60;99.90;;;;;;5049316;28;20425;-76